createdAt,value
2018-03-01T00:01:06.447Z,31.27
2018-03-01T00:03:32.822Z,27.20
2018-03-01T00:05:59.189Z,34.00
2018-03-01T00:08:25.517Z,33.57
2018-03-01T00:10:52.607Z,27.43
2018-03-01T00:13:19.017Z,29.30
2018-03-01T00:15:46.139Z,29.00
2018-03-01T00:18:12.497Z,31.90
2018-03-01T00:20:38.911Z,26.00
2018-03-01T00:23:06.090Z,32.43
2018-03-01T00:25:32.477Z,30.90
2018-03-01T00:28:05.945Z,27.30
2018-03-01T00:30:32.317Z,27.67
2018-03-01T00:33:02.276Z,26.57
2018-03-01T00:35:28.740Z,31.53
2018-03-01T00:37:55.058Z,27.57
2018-03-01T00:40:21.422Z,29.70
2018-03-01T00:42:47.715Z,25.63
2018-03-01T00:45:14.085Z,24.80
2018-03-01T00:47:40.432Z,37.90
2018-03-01T00:50:06.752Z,27.13
2018-03-01T00:52:33.170Z,24.33
2018-03-01T00:54:59.538Z,29.63
2018-03-01T00:57:26.633Z,31.20
2018-03-01T00:59:52.931Z,30.63
2018-03-01T01:02:19.302Z,30.50
2018-03-01T01:04:45.627Z,27.57
2018-03-01T01:07:11.992Z,29.37
2018-03-01T01:09:38.307Z,36.37
2018-03-01T01:12:04.721Z,39.60
2018-03-01T01:14:31.096Z,28.10
2018-03-01T01:16:57.471Z,36.00
2018-03-01T01:19:23.788Z,27.30
2018-03-01T01:21:50.187Z,31.10
2018-03-01T01:24:16.579Z,23.00
2018-03-01T01:26:42.895Z,30.77
2018-03-01T01:29:09.241Z,23.40
2018-03-01T01:31:35.545Z,38.40
2018-03-01T01:34:02.029Z,36.17
2018-03-01T01:36:28.332Z,30.43
2018-03-01T01:39:01.761Z,36.87
2018-03-01T01:41:28.092Z,26.37
2018-03-01T01:43:54.430Z,32.57
2018-03-01T01:46:20.845Z,31.30
2018-03-01T01:48:47.154Z,28.23
2018-03-01T01:51:13.501Z,32.27
2018-03-01T01:53:39.885Z,26.23
2018-03-01T01:56:06.990Z,27.27
2018-03-01T01:58:33.380Z,32.13
2018-03-01T02:00:59.705Z,34.07
2018-03-01T02:03:26.801Z,29.97
2018-03-01T02:05:53.128Z,34.47
2018-03-01T02:08:19.475Z,32.23
2018-03-01T02:10:45.783Z,32.20
2018-03-01T02:13:12.139Z,32.63
2018-03-01T02:15:38.549Z,32.47
2018-03-01T02:18:04.940Z,33.27
2018-03-01T02:20:32.020Z,32.80
2018-03-01T02:22:58.360Z,36.70
2018-03-01T02:25:24.702Z,35.27
2018-03-01T02:27:51.016Z,37.27
2018-03-01T02:30:28.320Z,25.63
2018-03-01T02:32:54.677Z,31.20
2018-03-01T02:35:21.022Z,33.50
2018-03-01T02:37:48.114Z,34.50
2018-03-01T02:40:14.526Z,31.93
2018-03-01T02:42:41.662Z,27.10
2018-03-01T02:45:08.772Z,34.17
2018-03-01T02:47:35.144Z,32.13
2018-03-01T02:50:02.223Z,36.63
2018-03-01T02:52:28.686Z,38.13
2018-03-01T02:54:54.981Z,30.63
2018-03-01T02:57:21.287Z,32.27
2018-03-01T02:59:48.342Z,32.97
2018-03-01T03:02:14.711Z,32.33
2018-03-01T03:04:41.041Z,33.40
2018-03-01T03:07:07.395Z,35.57
2018-03-01T03:09:33.762Z,31.40
2018-03-01T03:12:00.838Z,33.30
2018-03-01T03:14:27.173Z,31.47
2018-03-01T03:16:53.548Z,31.50
2018-03-01T03:19:19.928Z,30.20
2018-03-01T03:21:47.009Z,31.37
2018-03-01T03:24:13.354Z,30.97
2018-03-01T03:26:39.672Z,27.80
2018-03-01T03:29:06.010Z,34.63
2018-03-01T03:31:32.341Z,31.13
2018-03-01T03:33:58.720Z,33.57
2018-03-01T03:36:25.061Z,31.50
2018-03-01T03:38:51.378Z,40.80
2018-03-01T03:41:17.739Z,30.83
2018-03-01T03:43:44.088Z,28.20
2018-03-01T03:46:10.453Z,29.17
2018-03-01T03:48:36.811Z,30.90
2018-03-01T03:51:03.847Z,37.50
2018-03-01T03:53:30.947Z,31.83
2018-03-01T03:55:57.383Z,34.10
2018-03-01T03:58:23.734Z,28.07
2018-03-01T04:00:50.220Z,32.93
2018-03-01T04:03:17.271Z,33.60
2018-03-01T04:05:43.580Z,29.87
2018-03-01T04:08:10.654Z,33.97
2018-03-01T04:10:36.994Z,36.60
2018-03-01T04:13:03.394Z,30.83
2018-03-01T04:15:30.554Z,36.30
2018-03-01T04:17:57.709Z,32.90
2018-03-01T04:20:24.929Z,29.43
2018-03-01T04:22:51.295Z,33.40
2018-03-01T04:25:17.660Z,33.67
2018-03-01T04:27:43.999Z,34.03
2018-03-01T04:30:10.352Z,38.03
2018-03-01T04:32:36.848Z,38.43
2018-03-01T04:35:04.268Z,47.13
2018-03-01T04:37:33.365Z,35.50
2018-03-01T04:40:00.453Z,40.00
2018-03-01T04:42:26.759Z,37.03
2018-03-01T04:44:53.840Z,35.80
2018-03-01T04:47:20.242Z,41.23
2018-03-01T04:49:47.266Z,42.43
2018-03-01T04:52:13.589Z,38.50
2018-03-01T04:54:39.905Z,37.80
2018-03-01T04:57:06.211Z,35.87
2018-03-01T04:59:32.512Z,49.23
2018-03-01T05:01:59.511Z,42.63
2018-03-01T05:04:25.828Z,35.43
2018-03-01T05:06:52.201Z,37.10
2018-03-01T05:09:18.476Z,35.43
2018-03-01T05:11:44.783Z,39.00
2018-03-01T05:14:11.870Z,38.10
2018-03-01T05:16:38.142Z,36.73
2018-03-01T05:19:05.170Z,43.80
2018-03-01T05:21:31.502Z,42.27
2018-03-01T05:23:57.906Z,36.73
2018-03-01T05:26:24.193Z,34.17
2018-03-01T05:28:51.192Z,37.13
2018-03-01T05:31:17.473Z,32.77
2018-03-01T05:33:44.519Z,39.67
2018-03-01T05:36:11.596Z,33.03
2018-03-01T05:38:37.869Z,36.30
2018-03-01T05:41:04.445Z,34.50
2018-03-01T05:43:30.835Z,42.03
2018-03-01T05:45:57.155Z,34.37
2018-03-01T05:48:23.444Z,46.10
2018-03-01T05:50:49.723Z,33.10
2018-03-01T05:53:16.045Z,38.00
2018-03-01T05:55:42.297Z,38.73
2018-03-01T05:58:08.614Z,44.13
2018-03-01T06:00:34.888Z,38.27
2018-03-01T06:03:01.928Z,36.57
2018-03-01T06:05:28.962Z,37.63
2018-03-01T06:07:55.988Z,33.90
2018-03-01T06:10:22.254Z,41.97
2018-03-01T06:12:49.285Z,45.47
2018-03-01T06:15:17.121Z,37.70
2018-03-01T06:17:43.389Z,42.00
2018-03-01T06:20:09.663Z,50.67
2018-03-01T06:22:35.967Z,44.73
2018-03-01T06:25:03.038Z,36.20
2018-03-01T06:27:29.349Z,39.33
2018-03-01T06:29:56.431Z,38.80
2018-03-01T06:32:22.760Z,40.27
2018-03-01T06:34:49.038Z,47.07
2018-03-01T06:37:23.165Z,43.37
2018-03-01T06:39:49.522Z,38.80
2018-03-01T06:42:15.823Z,35.77
2018-03-01T06:44:42.835Z,35.97
2018-03-01T06:47:09.099Z,41.23
2018-03-01T06:49:36.163Z,52.30
2018-03-01T06:52:02.535Z,39.10
2018-03-01T06:54:28.887Z,46.20
2018-03-01T06:56:55.189Z,44.40
2018-03-01T06:59:21.508Z,50.00
2018-03-01T07:01:47.839Z,39.70
2018-03-01T07:04:14.151Z,44.77
2018-03-01T07:06:40.441Z,41.93
2018-03-01T07:09:06.712Z,38.20
2018-03-01T07:11:33.132Z,42.70
2018-03-01T07:13:59.500Z,53.00
2018-03-01T07:16:25.802Z,51.57
2018-03-01T07:18:52.846Z,46.40
2018-03-01T07:21:19.884Z,47.10
2018-03-01T07:23:46.942Z,43.70
2018-03-01T07:26:13.992Z,46.33
2018-03-01T07:28:40.323Z,42.10
2018-03-01T07:31:07.353Z,46.03
2018-03-01T07:33:34.389Z,45.03
2018-03-01T07:36:00.694Z,39.87
2018-03-01T07:38:26.943Z,45.67
2018-03-01T07:40:53.247Z,46.07
2018-03-01T07:43:19.542Z,45.37
2018-03-01T07:45:46.610Z,44.30
2018-03-01T07:48:12.884Z,50.73
2018-03-01T07:50:39.170Z,50.53
2018-03-01T07:53:05.437Z,51.50
2018-03-01T07:55:31.712Z,45.00
2018-03-01T07:57:57.998Z,44.50
2018-03-01T08:00:24.248Z,44.30
2018-03-01T08:02:51.275Z,56.60
2018-03-01T08:05:17.582Z,40.30
2018-03-01T08:07:43.932Z,51.10
2018-03-01T08:10:10.303Z,57.23
2018-03-01T08:12:36.580Z,53.40
2018-03-01T08:15:02.849Z,47.70
2018-03-01T08:17:29.905Z,48.37
2018-03-01T08:19:56.923Z,52.47
2018-03-01T08:22:23.183Z,49.80
2018-03-01T08:24:50.259Z,47.87
2018-03-01T08:27:16.547Z,44.93
2018-03-01T08:29:43.604Z,52.40
2018-03-01T08:32:10.608Z,46.37
2018-03-01T08:34:36.885Z,46.90
2018-03-01T08:37:03.914Z,56.07
2018-03-01T08:39:30.192Z,46.27
2018-03-01T08:41:56.474Z,47.80
2018-03-01T08:44:22.760Z,46.23
2018-03-01T08:46:49.049Z,49.00
2018-03-01T08:49:16.108Z,52.90
2018-03-01T08:51:43.152Z,41.83
2018-03-01T08:54:10.193Z,44.37
2018-03-01T08:56:37.223Z,44.93
2018-03-01T08:59:03.517Z,45.33
2018-03-01T09:01:29.805Z,41.90
2018-03-01T09:03:56.089Z,43.20
2018-03-01T09:06:22.361Z,50.50
2018-03-01T09:08:48.645Z,46.23
2018-03-01T09:11:14.963Z,41.00
2018-03-01T09:13:41.285Z,52.13
2018-03-01T09:16:07.587Z,37.37
2018-03-01T09:18:34.664Z,39.83
2018-03-01T09:21:00.995Z,42.93
2018-03-01T09:23:27.328Z,36.90
2018-03-01T09:25:53.674Z,42.63
2018-03-01T09:28:19.963Z,40.53
2018-03-01T09:30:46.992Z,43.37
2018-03-01T09:33:13.315Z,37.73
2018-03-01T09:35:39.624Z,29.93
2018-03-01T09:38:05.939Z,38.60
2018-03-01T09:40:32.316Z,49.27
2018-03-01T09:42:58.678Z,30.93
2018-03-01T09:45:25.731Z,26.27
2018-03-01T09:47:52.026Z,22.77
2018-03-01T09:50:18.348Z,23.17
2018-03-01T09:52:44.653Z,29.07
2018-03-01T09:55:10.986Z,19.50
2018-03-01T09:57:37.231Z,25.50
2018-03-01T10:00:03.579Z,25.97
2018-03-01T10:02:29.873Z,23.20
2018-03-01T10:04:56.193Z,23.97
2018-03-01T10:07:22.527Z,22.83
2018-03-01T10:09:48.874Z,24.43
2018-03-01T10:12:15.194Z,24.00
2018-03-01T10:14:41.473Z,25.07
2018-03-01T10:17:07.780Z,22.33
2018-03-01T10:19:34.067Z,27.50
2018-03-01T10:22:00.330Z,19.03
2018-03-01T10:24:26.635Z,27.80
2018-03-01T10:26:52.940Z,32.07
2018-03-01T10:29:19.986Z,20.23
2018-03-01T10:31:46.988Z,21.03
2018-03-01T10:34:13.268Z,21.77
2018-03-01T10:36:40.276Z,21.47
2018-03-01T10:39:06.588Z,26.77
2018-03-01T10:41:32.912Z,21.40
2018-03-01T10:43:59.245Z,26.07
2018-03-01T10:46:25.576Z,26.63
2018-03-01T10:48:51.869Z,32.43
2018-03-01T10:51:18.161Z,28.33
2018-03-01T10:53:44.473Z,21.47
2018-03-01T10:56:10.748Z,23.40
2018-03-01T10:58:37.366Z,20.50
2018-03-01T11:01:03.697Z,18.70
2018-03-01T11:03:29.997Z,23.70
2018-03-01T11:05:56.280Z,20.50
2018-03-01T11:08:23.350Z,22.67
2018-03-01T11:10:49.648Z,21.70
2018-03-01T11:13:15.941Z,22.80
2018-03-01T11:15:42.201Z,20.83
2018-03-01T11:18:08.452Z,23.97
2018-03-01T11:20:35.488Z,20.87
2018-03-01T11:23:02.500Z,20.57
2018-03-01T11:25:28.808Z,22.17
2018-03-01T11:27:55.123Z,24.47
2018-03-01T11:30:21.406Z,23.47
2018-03-01T11:32:47.801Z,24.03
2018-03-01T11:35:14.118Z,27.97
2018-03-01T11:37:40.510Z,23.77
2018-03-01T11:40:06.872Z,26.20
2018-03-01T11:42:33.898Z,24.00
2018-03-01T11:45:00.899Z,21.43
2018-03-01T11:47:27.156Z,27.60
2018-03-01T11:49:54.380Z,29.50
2018-03-01T11:52:20.700Z,26.57
2018-03-01T11:54:46.965Z,26.07
2018-03-01T11:57:13.281Z,22.37
2018-03-01T11:59:39.621Z,34.20
2018-03-01T12:02:05.900Z,25.40
2018-03-01T12:04:32.954Z,27.33
2018-03-01T12:06:59.260Z,26.63
2018-03-01T12:09:25.548Z,27.87
2018-03-01T12:11:51.893Z,21.30
2018-03-01T12:14:18.163Z,26.50
2018-03-01T12:16:45.225Z,23.90
2018-03-01T12:19:12.250Z,25.93
2018-03-01T12:21:38.554Z,30.03
2018-03-01T12:24:04.877Z,35.43
2018-03-01T12:26:31.208Z,35.37
2018-03-01T12:28:57.504Z,28.00
2018-03-01T12:31:23.836Z,29.27
2018-03-01T12:33:50.134Z,31.93
2018-03-01T12:36:18.137Z,31.57
2018-03-01T12:38:44.456Z,28.50
2018-03-01T12:41:11.512Z,31.70
2018-03-01T12:43:37.814Z,30.70
2018-03-01T12:46:04.170Z,29.77
2018-03-01T12:48:30.412Z,25.50
2018-03-01T12:50:56.692Z,27.47
2018-03-01T12:53:22.964Z,29.20
2018-03-01T12:55:49.392Z,27.53
2018-03-01T12:58:15.749Z,25.47
2018-03-01T13:00:42.056Z,21.57
2018-03-01T13:03:08.371Z,27.10
2018-03-01T13:05:35.468Z,27.97
2018-03-01T13:08:01.771Z,33.57
2018-03-01T13:10:33.122Z,38.67
2018-03-01T13:13:00.136Z,49.57
2018-03-01T13:15:28.103Z,39.37
2018-03-01T13:17:55.934Z,40.10
2018-03-01T13:20:22.369Z,37.03
2018-03-01T13:22:48.739Z,36.00
2018-03-01T13:25:15.849Z,45.27
2018-03-01T13:27:42.149Z,39.90
2018-03-01T13:30:10.375Z,49.37
2018-03-01T13:32:44.341Z,37.77
2018-03-01T13:35:10.671Z,43.10
2018-03-01T13:37:37.047Z,41.60
2018-03-01T13:40:03.433Z,41.20
2018-03-01T13:42:29.854Z,39.30
2018-03-01T13:44:56.953Z,36.63
2018-03-01T13:47:23.419Z,35.07
2018-03-01T13:49:50.500Z,47.43
2018-03-01T13:52:16.814Z,41.97
2018-03-01T13:54:43.828Z,42.97
2018-03-01T13:57:10.090Z,50.57
2018-03-01T13:59:37.128Z,51.37
2018-03-01T14:02:04.155Z,43.40
2018-03-01T14:04:30.470Z,43.43
2018-03-01T14:06:59.892Z,47.90
2018-03-01T14:09:27.737Z,40.43
2018-03-01T14:11:54.206Z,48.73
2018-03-01T14:14:20.542Z,47.23
2018-03-01T14:19:57.089Z,39.97
2018-03-01T14:25:28.001Z,46.83
2018-03-01T14:31:02.021Z,35.90
2018-03-01T14:33:29.238Z,45.33
2018-03-01T14:35:55.670Z,48.20
2018-03-01T14:38:22.103Z,44.80
2018-03-01T14:40:48.404Z,43.23
2018-03-01T14:43:14.763Z,42.97
2018-03-01T14:45:41.075Z,47.93
2018-03-01T14:48:07.477Z,53.03
2018-03-01T14:50:34.569Z,47.60
2018-03-01T14:53:00.969Z,41.70
2018-03-01T14:55:27.279Z,51.53
2018-03-01T14:57:53.705Z,50.30
2018-03-01T15:00:20.061Z,63.20
2018-03-01T15:02:46.467Z,52.13
2018-03-01T15:05:12.909Z,52.40
2018-03-01T15:07:39.270Z,51.40
2018-03-01T15:10:05.609Z,46.70
2018-03-01T15:12:31.988Z,50.87
2018-03-01T15:14:58.273Z,49.93
2018-03-01T15:17:24.599Z,57.17
2018-03-01T15:19:50.914Z,51.33
2018-03-01T15:22:18.050Z,49.17
2018-03-01T15:24:45.102Z,52.27
2018-03-01T15:27:12.151Z,51.80
2018-03-01T15:29:39.226Z,53.13
2018-03-01T15:32:12.678Z,47.37
2018-03-01T15:34:40.486Z,46.17
2018-03-01T15:37:06.798Z,47.27
2018-03-01T15:39:33.827Z,48.23
2018-03-01T15:42:00.160Z,53.40
2018-03-01T15:44:26.517Z,56.77
2018-03-01T15:46:53.591Z,47.27
2018-03-01T15:49:19.905Z,42.27
2018-03-01T15:51:46.215Z,36.40
2018-03-01T15:54:13.273Z,39.63
2018-03-01T15:56:40.345Z,38.10
2018-03-01T15:59:06.648Z,42.13
2018-03-01T16:01:33.660Z,43.60
2018-03-01T16:04:00.012Z,39.93
2018-03-01T16:06:27.239Z,44.87
2018-03-01T16:08:53.525Z,34.80
2018-03-01T16:11:19.838Z,40.97
2018-03-01T16:13:46.888Z,36.80
2018-03-01T16:16:13.948Z,40.73
2018-03-01T16:18:41.086Z,39.63
2018-03-01T16:21:08.093Z,38.03
2018-03-01T16:23:34.397Z,44.27
2018-03-01T16:26:00.757Z,42.23
2018-03-01T16:28:27.112Z,36.23
2018-03-01T16:30:53.365Z,40.83
2018-03-01T16:33:20.459Z,47.70
2018-03-01T16:35:46.791Z,37.60
2018-03-01T16:38:13.144Z,41.03
2018-03-01T16:40:39.416Z,46.43
2018-03-01T16:43:05.730Z,45.17
2018-03-01T16:45:32.859Z,31.13
2018-03-01T16:47:59.273Z,37.90
2018-03-01T16:50:25.727Z,34.17
2018-03-01T16:52:52.382Z,34.90
2018-03-01T16:55:19.397Z,37.33
2018-03-01T16:57:45.814Z,43.47
2018-03-01T17:00:12.124Z,60.87
2018-03-01T17:02:38.449Z,38.90
2018-03-01T17:05:04.734Z,41.80
2018-03-01T17:07:31.120Z,37.60
2018-03-01T17:09:57.581Z,41.67
2018-03-01T17:12:23.955Z,40.13
2018-03-01T17:14:51.131Z,42.83
2018-03-01T17:17:17.485Z,37.33
2018-03-01T17:19:43.778Z,51.03
2018-03-01T17:22:10.787Z,42.10
2018-03-01T17:24:37.091Z,42.20
2018-03-01T17:27:03.438Z,42.73
2018-03-01T17:29:29.685Z,36.10
2018-03-01T17:31:56.019Z,35.93
2018-03-01T17:34:22.345Z,38.30
2018-03-01T17:36:48.661Z,38.60
2018-03-01T17:39:15.001Z,46.03
2018-03-01T17:41:41.273Z,36.80
2018-03-01T17:44:08.366Z,47.40
2018-03-01T17:46:34.734Z,45.40
2018-03-01T17:49:01.016Z,34.63
2018-03-01T17:51:27.297Z,45.83
2018-03-01T17:53:54.410Z,41.97
2018-03-01T17:56:20.676Z,48.97
2018-03-01T17:58:47.733Z,38.57
2018-03-01T18:01:14.756Z,47.87
2018-03-01T18:03:41.066Z,44.30
2018-03-01T18:06:07.374Z,49.97
2018-03-01T18:08:33.693Z,50.83
2018-03-01T18:11:00.016Z,45.70
2018-03-01T18:13:26.309Z,48.97
2018-03-01T18:15:53.361Z,40.13
2018-03-01T18:18:19.679Z,40.27
2018-03-01T18:20:46.007Z,41.10
2018-03-01T18:23:12.322Z,54.87
2018-03-01T18:25:38.645Z,39.33
2018-03-01T18:28:05.028Z,40.00
2018-03-01T18:30:32.179Z,46.03
2018-03-01T18:32:59.326Z,40.50
2018-03-01T18:35:25.625Z,52.03
2018-03-01T18:37:51.953Z,46.23
2018-03-01T18:40:18.210Z,44.30
2018-03-01T18:42:44.488Z,43.83
2018-03-01T18:45:10.796Z,42.20
2018-03-01T18:47:37.828Z,40.63
2018-03-01T18:50:04.943Z,43.60
2018-03-01T18:52:31.317Z,45.93
2018-03-01T18:54:58.411Z,44.30
2018-03-01T18:57:24.724Z,40.53
2018-03-01T18:59:51.041Z,45.57
2018-03-01T19:02:18.102Z,43.47
2018-03-01T19:04:44.389Z,42.80
2018-03-01T19:07:11.441Z,44.40
2018-03-01T19:09:37.733Z,47.37
2018-03-01T19:12:04.070Z,44.60
2018-03-01T19:14:30.354Z,46.30
2018-03-01T19:16:57.463Z,42.07
2018-03-01T19:19:23.785Z,45.17
2018-03-01T19:21:50.247Z,46.40
2018-03-01T19:24:17.623Z,44.53
2018-03-01T19:26:44.711Z,50.37
2018-03-01T19:29:11.005Z,39.03
2018-03-01T19:31:38.176Z,39.87
2018-03-01T19:34:04.434Z,50.00
2018-03-01T19:36:30.754Z,47.40
2018-03-01T19:38:57.052Z,41.03
2018-03-01T19:41:24.104Z,42.80
2018-03-01T19:43:50.390Z,41.43
2018-03-01T19:46:16.720Z,51.03
2018-03-01T19:48:43.146Z,41.97
2018-03-01T19:51:09.477Z,47.27
2018-03-01T19:53:35.765Z,52.93
2018-03-01T19:56:02.095Z,50.83
2018-03-01T19:58:28.466Z,43.90
2018-03-01T20:00:54.789Z,44.53
2018-03-01T20:03:21.179Z,49.13
2018-03-01T20:05:47.573Z,43.23
2018-03-01T20:08:13.827Z,47.00
2018-03-01T20:10:40.833Z,39.20
2018-03-01T20:15:40.148Z,50.10
2018-03-01T20:18:06.505Z,53.07
2018-03-01T20:20:33.876Z,48.63
2018-03-01T20:23:00.935Z,47.90
2018-03-01T20:25:27.958Z,42.60
2018-03-01T20:27:54.283Z,42.10
2018-03-01T20:30:20.623Z,40.37
2018-03-01T20:32:47.684Z,51.20
2018-03-01T20:35:14.750Z,41.53
2018-03-01T20:37:41.106Z,50.10
2018-03-01T20:40:07.547Z,44.77
2018-03-01T20:42:33.906Z,43.43
2018-03-01T20:45:00.221Z,56.33
2018-03-01T20:47:26.554Z,53.63
2018-03-01T20:49:52.877Z,56.43
2018-03-01T20:52:19.222Z,42.57
2018-03-01T20:54:45.598Z,47.03
2018-03-01T20:57:12.691Z,37.27
2018-03-01T20:59:38.983Z,44.77
2018-03-01T21:02:06.031Z,59.60
2018-03-01T21:04:33.037Z,50.17
2018-03-01T21:06:59.311Z,44.50
2018-03-01T21:09:25.651Z,48.93
2018-03-01T21:11:51.980Z,44.03
2018-03-01T21:14:18.379Z,48.33
2018-03-01T21:16:44.649Z,44.80
2018-03-01T21:19:17.795Z,44.87
2018-03-01T21:21:44.065Z,51.20
2018-03-01T21:24:10.370Z,47.33
2018-03-01T21:26:37.416Z,42.87
2018-03-01T21:29:03.725Z,50.77
2018-03-01T21:31:30.079Z,49.23
2018-03-01T21:33:56.383Z,48.17
2018-03-01T21:36:22.710Z,40.40
2018-03-01T21:38:49.011Z,52.03
2018-03-01T21:41:15.365Z,42.87
2018-03-01T21:43:41.764Z,55.87
2018-03-01T21:46:08.146Z,44.33
2018-03-01T21:48:34.425Z,39.60
2018-03-01T21:51:00.679Z,46.97
2018-03-01T21:53:28.012Z,45.30
2018-03-01T21:55:54.326Z,49.63
2018-03-01T21:58:20.602Z,44.73
2018-03-01T22:00:47.086Z,50.27
2018-03-01T22:03:14.270Z,58.73
2018-03-01T22:05:40.630Z,46.77
2018-03-01T22:08:07.953Z,59.10
2018-03-01T22:10:34.224Z,51.97
2018-03-01T22:13:00.560Z,47.37
2018-03-01T22:15:26.822Z,45.57
2018-03-01T22:17:53.840Z,49.03
2018-03-01T22:20:20.116Z,57.97
2018-03-01T22:22:46.397Z,44.47
2018-03-01T22:25:12.719Z,47.33
2018-03-01T22:27:39.013Z,50.47
2018-03-01T22:30:05.358Z,54.33
2018-03-01T22:32:31.676Z,50.20
2018-03-01T22:34:57.917Z,52.23
2018-03-01T22:37:25.203Z,56.30
2018-03-01T22:39:51.473Z,48.30
2018-03-01T22:42:18.491Z,56.67
2018-03-01T22:44:44.824Z,48.33
2018-03-01T22:47:11.102Z,55.37
2018-03-01T22:49:37.365Z,46.23
2018-03-01T22:52:03.613Z,50.07
2018-03-01T22:54:29.889Z,52.20
2018-03-01T22:56:56.166Z,47.17
2018-03-01T22:59:22.479Z,54.50
2018-03-01T23:01:48.937Z,53.67
2018-03-01T23:04:15.264Z,47.80
2018-03-01T23:06:41.609Z,53.90
2018-03-01T23:09:08.799Z,54.83
2018-03-01T23:11:35.076Z,58.83
2018-03-01T23:14:01.368Z,57.53
2018-03-01T23:16:27.671Z,52.50
2018-03-01T23:18:53.960Z,45.57
2018-03-01T23:21:20.292Z,53.70
2018-03-01T23:23:46.648Z,48.50
2018-03-01T23:26:13.689Z,47.87
2018-03-01T23:28:39.948Z,46.17
2018-03-01T23:31:06.245Z,60.93
2018-03-01T23:33:32.525Z,56.30
2018-03-01T23:35:58.865Z,49.10
2018-03-01T23:38:25.187Z,52.13
2018-03-01T23:40:51.525Z,49.80
2018-03-01T23:43:17.809Z,46.40
2018-03-01T23:45:44.845Z,51.67
2018-03-01T23:48:11.127Z,47.07
2018-03-01T23:50:37.408Z,45.37
2018-03-01T23:53:03.656Z,53.90
2018-03-01T23:55:30.699Z,47.70
2018-03-01T23:57:57.856Z,51.33
